createdAt,value
2022-11-11T00:00:58.897Z,98374.06
2022-11-11T00:03:25.521Z,98369.78
2022-11-11T00:05:51.876Z,98367.09
2022-11-11T00:08:18.313Z,98366.66
2022-11-11T00:10:44.688Z,98367.41
2022-11-11T00:13:11.031Z,98366.56
2022-11-11T00:15:38.926Z,98356.63
2022-11-11T00:18:24.718Z,98365.63
2022-11-11T00:21:10.221Z,98380.53
2022-11-11T00:23:55.300Z,98370.22
2022-11-11T00:29:08.365Z,98363.16
2022-11-11T00:31:57.945Z,98352.56
2022-11-11T00:34:24.346Z,98345.16
2022-11-11T00:36:50.745Z,98344.78
2022-11-11T00:39:17.170Z,98347.00
2022-11-11T00:41:43.550Z,98347.84
2022-11-11T00:44:09.881Z,98341.81
2022-11-11T00:46:55.194Z,98347.44
2022-11-11T00:49:40.335Z,98349.97
2022-11-11T00:52:06.774Z,98354.06
2022-11-11T00:54:33.092Z,98360.19
2022-11-11T00:56:59.531Z,98348.69
2022-11-11T00:59:25.988Z,98356.47
2022-11-11T01:01:52.346Z,98353.84
2022-11-11T01:04:18.724Z,98361.94
2022-11-11T01:06:45.130Z,98362.16
2022-11-11T01:09:11.482Z,98354.06
2022-11-11T01:11:37.938Z,98361.56
2022-11-11T01:14:04.397Z,98356.84
2022-11-11T01:16:30.783Z,98360.28
2022-11-11T01:18:57.153Z,98356.03
2022-11-11T01:21:24.624Z,98369.03
2022-11-11T01:23:52.409Z,98369.66
2022-11-11T01:26:27.659Z,98375.97
2022-11-11T01:28:57.698Z,98372.34
2022-11-11T01:31:25.521Z,98375.50
2022-11-11T01:33:52.005Z,98380.22
2022-11-11T01:36:23.065Z,98381.56
2022-11-11T01:38:53.811Z,98378.34
2022-11-11T01:41:34.919Z,98377.16
2022-11-11T01:44:02.852Z,98379.97
2022-11-11T01:46:36.663Z,98383.59
2022-11-11T01:49:21.417Z,98382.38
2022-11-11T01:51:59.878Z,98383.38
2022-11-11T01:54:38.179Z,98386.88
2022-11-11T01:57:08.675Z,98395.63
2022-11-11T01:59:37.500Z,98396.75
2022-11-11T02:02:08.956Z,98395.19
2022-11-11T02:04:55.541Z,98391.00
2022-11-11T02:07:22.802Z,98396.53
2022-11-11T02:09:51.430Z,98397.13
2022-11-11T02:12:36.375Z,98389.03
2022-11-11T02:15:02.867Z,98382.47
2022-11-11T02:17:30.931Z,98389.44
2022-11-11T02:20:01.940Z,98390.91
2022-11-11T02:22:47.383Z,98394.53
2022-11-11T02:25:17.334Z,98394.56
2022-11-11T02:27:46.091Z,98393.63
2022-11-11T02:30:16.756Z,98388.69
2022-11-11T02:32:44.041Z,98388.72
2022-11-11T02:35:15.848Z,98377.63
2022-11-11T02:37:44.675Z,98374.22
2022-11-11T02:40:12.856Z,98371.69
2022-11-11T02:42:39.417Z,98374.06
2022-11-11T02:45:06.042Z,98367.38
2022-11-11T02:47:32.417Z,98372.50
2022-11-11T02:49:58.876Z,98377.59
2022-11-11T02:52:25.938Z,98374.88
2022-11-11T02:54:52.378Z,98371.00
2022-11-11T02:57:20.759Z,98373.25
2022-11-11T02:59:47.167Z,98372.88
2022-11-11T03:02:13.889Z,98375.53
2022-11-11T03:04:40.646Z,98380.13
2022-11-11T03:07:07.682Z,98387.47
2022-11-11T03:09:34.284Z,98394.34
2022-11-11T03:12:01.186Z,98390.47
2022-11-11T03:14:27.748Z,98391.09
2022-11-11T03:17:13.192Z,98391.41
2022-11-11T03:19:39.771Z,98399.53
2022-11-11T03:25:10.973Z,98402.44
2022-11-11T03:27:37.293Z,98417.75
2022-11-11T03:30:03.751Z,98420.34
2022-11-11T03:32:30.049Z,98414.56
2022-11-11T03:34:56.416Z,98413.94
2022-11-11T03:37:41.158Z,98413.69
2022-11-11T03:40:08.163Z,98405.97
2022-11-11T03:42:34.509Z,98398.81
2022-11-11T03:45:00.811Z,98411.00
2022-11-11T03:47:27.253Z,98413.13
2022-11-11T03:49:53.642Z,98413.69
2022-11-11T03:52:19.957Z,98413.47
2022-11-11T03:54:46.291Z,98410.31
2022-11-11T03:57:30.788Z,98415.34
2022-11-11T03:59:57.174Z,98413.69
2022-11-11T04:02:42.293Z,98418.56
2022-11-11T04:05:27.683Z,98406.63
2022-11-11T04:08:12.765Z,98409.88
2022-11-11T04:10:39.148Z,98408.84
2022-11-11T04:13:24.218Z,98414.78
2022-11-11T04:16:09.242Z,98413.00
2022-11-11T04:18:54.453Z,98412.25
2022-11-11T04:21:40.021Z,98412.75
2022-11-11T04:24:25.369Z,98406.66
2022-11-11T04:26:53.296Z,98410.19
2022-11-11T04:29:28.443Z,98412.66
2022-11-11T04:32:17.538Z,98419.63
2022-11-11T04:34:45.111Z,98423.72
2022-11-11T04:37:11.557Z,98425.53
2022-11-11T04:39:56.748Z,98433.22
2022-11-11T04:42:23.391Z,98430.94
2022-11-11T04:45:08.574Z,98435.13
2022-11-11T04:47:35.160Z,98438.13
2022-11-11T04:50:06.747Z,98441.34
2022-11-11T04:52:33.842Z,98438.28
2022-11-11T04:55:21.863Z,98445.78
2022-11-11T04:57:48.795Z,98448.22
2022-11-11T05:00:16.936Z,98438.84
2022-11-11T05:03:02.012Z,98449.72
2022-11-11T05:05:28.962Z,98453.81
2022-11-11T05:08:14.075Z,98443.00
2022-11-11T05:10:40.643Z,98452.09
2022-11-11T05:13:25.904Z,98457.78
2022-11-11T05:16:11.195Z,98465.31
2022-11-11T05:18:56.204Z,98464.59
2022-11-11T05:21:25.573Z,98464.69
2022-11-11T05:24:10.874Z,98468.09
2022-11-11T05:26:37.266Z,98467.75
2022-11-11T05:29:03.678Z,98479.66
2022-11-11T05:31:30.540Z,98484.31
2022-11-11T05:33:56.927Z,98486.50
2022-11-11T05:36:23.544Z,98479.34
2022-11-11T05:38:49.852Z,98480.78
2022-11-11T05:41:16.225Z,98483.16
2022-11-11T05:43:42.547Z,98483.28
2022-11-11T05:46:08.858Z,98483.53
2022-11-11T05:48:35.363Z,98492.09
2022-11-11T05:51:01.762Z,98497.50
2022-11-11T05:53:28.442Z,98505.28
2022-11-11T05:55:54.802Z,98499.44
2022-11-11T05:58:21.141Z,98497.38
2022-11-11T06:00:47.859Z,98499.25
2022-11-11T06:03:14.172Z,98510.00
2022-11-11T06:05:40.527Z,98512.31
2022-11-11T06:08:06.865Z,98518.75
2022-11-11T06:10:33.312Z,98520.78
2022-11-11T06:13:04.856Z,98524.94
2022-11-11T06:15:32.937Z,98523.19
2022-11-11T06:17:59.256Z,98521.44
2022-11-11T06:20:26.226Z,98512.88
2022-11-11T06:22:58.622Z,98517.31
2022-11-11T06:25:44.867Z,98511.78
2022-11-11T06:28:11.738Z,98515.03
2022-11-11T06:30:49.491Z,98510.91
2022-11-11T06:33:17.233Z,98509.59
2022-11-11T06:35:43.802Z,98512.75
2022-11-11T06:38:10.162Z,98510.72
2022-11-11T06:40:36.610Z,98511.13
2022-11-11T06:43:02.963Z,98512.28
2022-11-11T06:45:30.322Z,98512.44
2022-11-11T06:47:56.786Z,98503.78
2022-11-11T06:50:23.167Z,98506.25
2022-11-11T06:52:49.529Z,98508.00
2022-11-11T06:55:15.923Z,98507.06
2022-11-11T06:57:42.941Z,98499.03
2022-11-11T07:00:09.630Z,98501.13
2022-11-11T07:02:36.073Z,98507.84
2022-11-11T07:05:02.475Z,98507.53
2022-11-11T07:07:28.862Z,98510.38
2022-11-11T07:09:55.744Z,98525.59
2022-11-11T07:12:22.631Z,98524.34
2022-11-11T07:14:48.930Z,98527.75
2022-11-11T07:17:15.306Z,98530.50
2022-11-11T07:19:41.694Z,98539.66
2022-11-11T07:22:08.058Z,98541.22
2022-11-11T07:24:34.377Z,98533.25
2022-11-11T07:27:02.101Z,98529.97
2022-11-11T07:29:29.205Z,98530.94
2022-11-11T07:31:55.658Z,98539.66
2022-11-11T07:34:22.066Z,98543.13
2022-11-11T07:36:48.385Z,98540.16
2022-11-11T07:39:14.779Z,98533.94
2022-11-11T07:41:41.404Z,98533.53
2022-11-11T07:44:07.712Z,98530.03
2022-11-11T07:46:34.117Z,98529.09
2022-11-11T07:49:00.597Z,98520.16
2022-11-11T07:51:27.036Z,98535.66
2022-11-11T07:53:53.446Z,98528.34
2022-11-11T07:56:19.782Z,98530.50
2022-11-11T07:58:46.291Z,98524.81
2022-11-11T08:01:12.830Z,98532.44
2022-11-11T08:03:52.834Z,98533.00
2022-11-11T08:06:19.946Z,98531.31
2022-11-11T08:08:46.650Z,98542.84
2022-11-11T08:11:13.436Z,98536.81
2022-11-11T08:13:43.517Z,98537.75
2022-11-11T08:16:14.781Z,98555.88
2022-11-11T08:18:41.687Z,98559.00
2022-11-11T08:21:09.088Z,98563.25
2022-11-11T08:24:15.603Z,98568.66
2022-11-11T08:26:28.960Z,98562.81
2022-11-11T08:28:56.426Z,98568.47
2022-11-11T08:31:22.754Z,98568.16
2022-11-11T08:33:49.762Z,98572.56
2022-11-11T08:36:20.786Z,98566.97
2022-11-11T08:38:47.923Z,98563.06
2022-11-11T08:41:14.535Z,98565.25
2022-11-11T08:43:41.439Z,98566.63
2022-11-11T08:46:07.959Z,98558.09
2022-11-11T08:48:34.538Z,98564.56
2022-11-11T08:51:01.421Z,98565.00
2022-11-11T08:53:28.262Z,98561.63
2022-11-11T08:55:55.005Z,98565.88
2022-11-11T08:58:21.320Z,98567.44
2022-11-11T09:00:47.898Z,98565.47
2022-11-11T09:03:14.684Z,98567.03
2022-11-11T09:05:41.430Z,98565.06
2022-11-11T09:08:08.666Z,98563.38
2022-11-11T09:10:36.083Z,98564.31
2022-11-11T09:13:02.822Z,98578.53
2022-11-11T09:15:29.543Z,98580.91
2022-11-11T09:17:56.143Z,98583.84
2022-11-11T09:20:25.214Z,98582.31
2022-11-11T09:22:53.049Z,98583.84
2022-11-11T09:25:20.150Z,98585.09
2022-11-11T09:27:56.576Z,98593.69
2022-11-11T09:30:23.090Z,98595.53
2022-11-11T09:32:49.556Z,98604.22
2022-11-11T09:35:15.939Z,98602.03
2022-11-11T09:37:42.565Z,98599.53
2022-11-11T09:40:17.932Z,98598.63
2022-11-11T09:42:48.965Z,98611.03
2022-11-11T09:45:30.591Z,98612.06
2022-11-11T09:48:10.045Z,98610.97
2022-11-11T09:50:39.459Z,98594.13
2022-11-11T09:53:18.135Z,98596.63
2022-11-11T09:56:17.573Z,98597.47
2022-11-11T09:58:57.819Z,98598.44
2022-11-11T10:01:29.373Z,98587.47
2022-11-11T10:04:16.070Z,98589.41
2022-11-11T10:06:43.559Z,98584.75
2022-11-11T10:09:23.305Z,98583.16
2022-11-11T10:12:11.259Z,98593.69
2022-11-11T10:14:42.502Z,98586.63
2022-11-11T10:17:15.552Z,98585.38
2022-11-11T10:19:54.218Z,98581.41
2022-11-11T10:22:22.117Z,98586.72
2022-11-11T10:25:02.160Z,98582.44
2022-11-11T10:27:29.143Z,98582.22
2022-11-11T10:29:56.103Z,98585.88
2022-11-11T10:32:27.649Z,98591.53
2022-11-11T10:34:57.773Z,98590.16
2022-11-11T10:37:42.851Z,98593.09
2022-11-11T10:40:23.781Z,98596.84
2022-11-11T10:42:50.559Z,98595.91
2022-11-11T10:45:29.930Z,98589.69
2022-11-11T10:47:56.486Z,98591.78
2022-11-11T10:50:35.753Z,98587.34
2022-11-11T10:53:13.320Z,98578.66
2022-11-11T10:55:42.707Z,98582.22
2022-11-11T10:58:12.277Z,98581.22
2022-11-11T11:00:44.084Z,98577.25
2022-11-11T11:03:17.056Z,98567.25
2022-11-11T11:05:46.317Z,98578.81
2022-11-11T11:08:16.342Z,98578.91
2022-11-11T11:10:47.352Z,98574.47
2022-11-11T11:13:16.728Z,98578.03
2022-11-11T11:15:49.246Z,98576.97
2022-11-11T11:18:17.029Z,98575.91
2022-11-11T11:21:03.153Z,98579.34
2022-11-11T11:23:40.024Z,98579.78
2022-11-11T11:26:06.870Z,98580.91
2022-11-11T11:28:34.516Z,98574.66
2022-11-11T11:31:07.714Z,98579.50
2022-11-11T11:33:51.254Z,98580.69
2022-11-11T11:36:17.834Z,98582.19
2022-11-11T11:38:47.471Z,98577.66
2022-11-11T11:41:13.923Z,98583.94
2022-11-11T11:43:42.867Z,98579.84
2022-11-11T11:46:18.382Z,98578.25
2022-11-11T11:48:50.688Z,98581.63
2022-11-11T11:51:32.277Z,98577.41
2022-11-11T11:54:13.213Z,98570.09
2022-11-11T11:56:41.818Z,98567.03
2022-11-11T11:59:22.757Z,98566.50
2022-11-11T12:01:59.368Z,98562.69
2022-11-11T12:04:44.802Z,98558.75
2022-11-11T12:07:16.932Z,98564.66
2022-11-11T12:09:51.250Z,98556.28
2022-11-11T12:12:37.154Z,98557.63
2022-11-11T12:15:03.530Z,98559.97
2022-11-11T12:17:33.152Z,98559.28
2022-11-11T12:20:11.853Z,98552.84
2022-11-11T12:22:49.291Z,98550.44
2022-11-11T12:25:15.774Z,98551.50
2022-11-11T12:27:48.483Z,98548.69
2022-11-11T12:30:18.704Z,98544.63
2022-11-11T12:33:05.797Z,98545.84
2022-11-11T12:35:32.215Z,98541.75
2022-11-11T12:38:01.459Z,98541.53
2022-11-11T12:40:27.900Z,98546.41
2022-11-11T12:43:13.290Z,98540.69
2022-11-11T12:45:47.316Z,98547.59
2022-11-11T12:48:25.260Z,98546.16
2022-11-11T12:51:07.333Z,98543.53
2022-11-11T12:53:36.969Z,98543.06
2022-11-11T12:56:24.113Z,98549.00
2022-11-11T12:58:59.467Z,98547.81
2022-11-11T13:01:37.993Z,98544.28
2022-11-11T13:04:19.407Z,98542.94
2022-11-11T13:06:45.806Z,98552.13
2022-11-11T13:09:24.263Z,98548.19
2022-11-11T13:12:01.422Z,98548.66
2022-11-11T13:14:33.936Z,98546.88
2022-11-11T13:17:01.577Z,98538.66
2022-11-11T13:19:27.889Z,98538.75
2022-11-11T13:22:02.789Z,98541.88
2022-11-11T13:24:32.113Z,98546.66
2022-11-11T13:27:04.947Z,98552.84
2022-11-11T13:29:49.806Z,98544.00
2022-11-11T13:32:17.689Z,98537.59
2022-11-11T13:34:44.415Z,98531.41
2022-11-11T13:37:20.160Z,98534.16
2022-11-11T13:39:47.996Z,98537.13
2022-11-11T13:42:21.002Z,98544.47
2022-11-11T13:44:47.329Z,98547.59
2022-11-11T13:47:18.763Z,98547.34
2022-11-11T13:49:59.404Z,98545.19
2022-11-11T13:52:31.838Z,98548.31
2022-11-11T13:55:06.239Z,98551.03
2022-11-11T13:57:34.564Z,98546.66
2022-11-11T14:00:04.416Z,98548.44
2022-11-11T14:02:31.989Z,98544.25
2022-11-11T14:05:10.571Z,98538.66
2022-11-11T14:07:49.015Z,98542.13
2022-11-11T14:10:18.198Z,98547.28
2022-11-11T14:12:46.873Z,98531.59
2022-11-11T14:15:32.244Z,98529.44
2022-11-11T14:17:58.545Z,98533.53
2022-11-11T14:20:45.174Z,98527.22
2022-11-11T14:23:24.150Z,98534.22
2022-11-11T14:25:52.258Z,98531.75
2022-11-11T14:28:28.313Z,98522.22
2022-11-11T14:30:56.075Z,98527.53
2022-11-11T14:33:34.420Z,98522.56
2022-11-11T14:36:19.717Z,98528.19
2022-11-11T14:39:06.427Z,98525.19
2022-11-11T14:41:45.139Z,98530.19
2022-11-11T14:44:29.603Z,98528.53
2022-11-11T14:47:02.130Z,98524.97
2022-11-11T14:49:43.567Z,98527.47
2022-11-11T14:52:28.648Z,98533.31
2022-11-11T14:55:03.930Z,98528.78
2022-11-11T14:57:50.871Z,98528.91
2022-11-11T15:00:22.176Z,98535.19
2022-11-11T15:02:51.726Z,98538.91
2022-11-11T15:05:21.368Z,98534.00
2022-11-11T15:08:03.717Z,98535.66
2022-11-11T15:10:39.271Z,98539.47
2022-11-11T15:13:05.710Z,98530.63
2022-11-11T15:15:32.035Z,98538.00
2022-11-11T15:18:04.737Z,98538.25
2022-11-11T15:20:39.463Z,98544.72
2022-11-11T15:23:15.990Z,98541.47
2022-11-11T15:25:52.880Z,98543.72
2022-11-11T15:28:34.520Z,98545.31
2022-11-11T15:31:07.077Z,98538.41
2022-11-11T15:33:33.413Z,98540.53
2022-11-11T15:36:11.233Z,98548.16
2022-11-11T15:38:38.248Z,98539.44
2022-11-11T15:41:04.691Z,98538.59
2022-11-11T15:43:32.271Z,98530.16
2022-11-11T15:46:02.955Z,98532.00
2022-11-11T15:48:41.117Z,98528.34
2022-11-11T15:51:17.845Z,98525.81
2022-11-11T15:53:44.860Z,98523.88
2022-11-11T15:56:11.873Z,98521.69
2022-11-11T15:58:39.321Z,98528.28
2022-11-11T16:01:07.372Z,98533.69
2022-11-11T16:03:40.045Z,98523.94
2022-11-11T16:06:16.254Z,98528.44
2022-11-11T16:08:44.136Z,98527.03
2022-11-11T16:11:13.087Z,98526.13
2022-11-11T16:13:42.643Z,98529.19
2022-11-11T16:16:11.513Z,98526.78
2022-11-11T16:18:56.369Z,98514.88
2022-11-11T16:21:28.458Z,98507.66
2022-11-11T16:23:55.362Z,98514.69
2022-11-11T16:26:21.935Z,98517.13
2022-11-11T16:28:51.511Z,98509.31
2022-11-11T16:31:43.684Z,98515.72
2022-11-11T16:34:32.140Z,98520.38
2022-11-11T16:37:02.580Z,98520.72
2022-11-11T16:39:29.671Z,98518.44
2022-11-11T16:41:57.237Z,98519.41
2022-11-11T16:44:32.580Z,98525.91
2022-11-11T16:46:58.972Z,98527.69
2022-11-11T16:49:37.614Z,98523.41
2022-11-11T16:52:09.770Z,98528.81
2022-11-11T16:54:38.512Z,98532.59
2022-11-11T16:57:05.286Z,98530.56
2022-11-11T16:59:41.844Z,98523.88
2022-11-11T17:02:18.181Z,98527.66
2022-11-11T17:04:50.226Z,98524.91
2022-11-11T17:07:36.314Z,98527.75
2022-11-11T17:10:08.849Z,98537.16
2022-11-11T17:12:37.648Z,98534.19
2022-11-11T17:15:04.832Z,98533.06
2022-11-11T17:17:31.330Z,98535.59
2022-11-11T17:19:58.317Z,98530.84
2022-11-11T17:22:25.339Z,98538.31
2022-11-11T17:24:51.725Z,98536.38
2022-11-11T17:27:18.118Z,98526.59
2022-11-11T17:29:44.539Z,98543.47
2022-11-11T17:32:10.883Z,98535.94
2022-11-11T17:34:37.323Z,98536.91
2022-11-11T17:37:03.650Z,98533.13
2022-11-11T17:39:30.023Z,98532.41
2022-11-11T17:41:56.361Z,98533.81
2022-11-11T17:44:22.924Z,98537.16
2022-11-11T17:46:49.236Z,98531.38
2022-11-11T17:49:29.589Z,98530.94
2022-11-11T17:52:02.360Z,98538.69
2022-11-11T17:54:28.863Z,98535.31
2022-11-11T17:56:55.298Z,98536.28
2022-11-11T17:59:21.664Z,98538.44
2022-11-11T18:01:48.184Z,98538.22
2022-11-11T18:04:14.712Z,98531.56
2022-11-11T18:06:41.241Z,98526.00
2022-11-11T18:09:07.706Z,98533.75
2022-11-11T18:11:35.337Z,98525.91
2022-11-11T18:14:01.999Z,98538.22
2022-11-11T18:16:28.416Z,98530.88
2022-11-11T18:18:59.421Z,98531.44
2022-11-11T18:21:26.174Z,98540.38
2022-11-11T18:23:52.570Z,98543.28
2022-11-11T18:26:20.780Z,98542.13
2022-11-11T18:28:47.541Z,98550.06
2022-11-11T18:31:14.496Z,98558.53
2022-11-11T18:33:44.830Z,98555.09
2022-11-11T18:36:15.401Z,98549.25
2022-11-11T18:38:42.164Z,98548.31
2022-11-11T18:41:10.334Z,98543.22
2022-11-11T18:43:40.809Z,98544.06
2022-11-11T18:46:09.107Z,98549.41
2022-11-11T18:48:35.984Z,98557.81
2022-11-11T18:51:03.327Z,98555.78
2022-11-11T18:53:30.829Z,98554.63
2022-11-11T18:56:02.112Z,98554.63
2022-11-11T18:58:29.491Z,98557.97
2022-11-11T19:01:02.911Z,98560.81
2022-11-11T19:03:29.362Z,98558.13
2022-11-11T19:05:59.147Z,98565.38
2022-11-11T19:08:25.476Z,98560.72
2022-11-11T19:10:51.822Z,98563.94
2022-11-11T19:13:18.273Z,98563.22
2022-11-11T19:15:44.739Z,98571.63
2022-11-11T19:18:11.127Z,98569.50
2022-11-11T19:20:37.895Z,98570.47
2022-11-11T19:23:04.344Z,98562.44
2022-11-11T19:25:34.006Z,98563.53
2022-11-11T19:28:00.392Z,98569.09
2022-11-11T19:30:26.686Z,98570.63
2022-11-11T19:32:52.999Z,98574.00
2022-11-11T19:35:20.548Z,98574.19
2022-11-11T19:37:46.946Z,98563.03
2022-11-11T19:40:13.431Z,98558.88
2022-11-11T19:42:39.823Z,98553.97
2022-11-11T19:45:06.871Z,98554.91
2022-11-11T19:47:33.281Z,98558.63
2022-11-11T19:49:59.616Z,98561.53
2022-11-11T19:52:26.038Z,98568.91
2022-11-11T19:54:52.474Z,98574.81
2022-11-11T19:57:18.968Z,98586.94
2022-11-11T19:59:46.367Z,98586.31
2022-11-11T20:02:12.687Z,98591.03
2022-11-11T20:04:39.216Z,98583.94
2022-11-11T20:07:05.743Z,98588.63
2022-11-11T20:09:32.228Z,98584.00
2022-11-11T20:11:58.615Z,98590.78
2022-11-11T20:14:26.088Z,98596.28
2022-11-11T20:16:52.456Z,98598.22
2022-11-11T20:19:18.852Z,98597.06
2022-11-11T20:21:45.346Z,98596.38
2022-11-11T20:24:11.932Z,98592.72
2022-11-11T20:26:38.399Z,98603.75
2022-11-11T20:29:04.851Z,98602.50
2022-11-11T20:31:31.195Z,98590.31
2022-11-11T20:33:57.709Z,98597.66
2022-11-11T20:36:24.206Z,98593.34
2022-11-11T20:38:50.679Z,98596.91
2022-11-11T20:41:18.009Z,98592.00
2022-11-11T20:43:44.915Z,98585.38
2022-11-11T20:46:13.672Z,98590.09
2022-11-11T20:48:41.408Z,98596.47
2022-11-11T20:51:09.379Z,98605.06
2022-11-11T20:53:36.145Z,98606.84
2022-11-11T20:56:03.553Z,98602.78
2022-11-11T20:58:30.084Z,98599.16
2022-11-11T21:01:06.578Z,98601.84
2022-11-11T21:03:33.313Z,98597.69
2022-11-11T21:06:06.053Z,98603.22
2022-11-11T21:08:36.405Z,98595.16
2022-11-11T21:11:03.461Z,98600.72
2022-11-11T21:13:30.043Z,98599.97
2022-11-11T21:16:08.081Z,98600.91
2022-11-11T21:18:36.083Z,98605.31
2022-11-11T21:21:17.089Z,98604.88
2022-11-11T21:23:45.919Z,98596.94
2022-11-11T21:26:16.228Z,98596.66
2022-11-11T21:28:44.028Z,98592.47
2022-11-11T21:31:11.954Z,98597.16
2022-11-11T21:33:38.376Z,98590.78
2022-11-11T21:36:06.471Z,98591.41
2022-11-11T21:38:36.343Z,98599.38
2022-11-11T21:41:03.810Z,98588.41
2022-11-11T21:43:30.226Z,98583.69
2022-11-11T21:46:01.319Z,98583.28
2022-11-11T21:48:27.818Z,98591.63
2022-11-11T21:50:54.168Z,98594.56
2022-11-11T21:53:20.543Z,98587.78
2022-11-11T21:55:47.016Z,98593.81
2022-11-11T21:58:15.324Z,98595.59
2022-11-11T22:00:41.719Z,98595.06
2022-11-11T22:03:08.026Z,98591.94
2022-11-11T22:05:34.345Z,98591.72
2022-11-11T22:08:00.677Z,98589.72
2022-11-11T22:10:27.078Z,98590.13
2022-11-11T22:12:53.479Z,98599.53
2022-11-11T22:15:20.834Z,98595.88
2022-11-11T22:17:47.137Z,98597.44
2022-11-11T22:20:13.504Z,98592.34
2022-11-11T22:22:39.802Z,98590.78
2022-11-11T22:25:06.492Z,98588.72
2022-11-11T22:27:32.790Z,98585.38
2022-11-11T22:29:59.136Z,98595.69
2022-11-11T22:32:26.551Z,98590.28
2022-11-11T22:34:53.026Z,98597.91
2022-11-11T22:37:19.395Z,98593.50
2022-11-11T22:39:45.702Z,98604.16
2022-11-11T22:42:12.090Z,98606.44
2022-11-11T22:44:38.424Z,98602.69
2022-11-11T22:47:04.865Z,98599.88
2022-11-11T22:49:31.247Z,98598.31
2022-11-11T22:51:57.540Z,98600.19
2022-11-11T22:54:25.923Z,98597.81
2022-11-11T22:56:52.237Z,98596.88
2022-11-11T22:59:18.564Z,98594.16
2022-11-11T23:01:45.019Z,98590.25
2022-11-11T23:04:14.350Z,98583.78
2022-11-11T23:06:42.012Z,98587.00
2022-11-11T23:09:10.010Z,98582.84
2022-11-11T23:11:37.376Z,98580.25
2022-11-11T23:14:05.035Z,98575.03
2022-11-11T23:16:31.417Z,98570.22
2022-11-11T23:19:00.479Z,98577.34
2022-11-11T23:21:27.867Z,98573.16
2022-11-11T23:23:54.618Z,98574.59
2022-11-11T23:26:24.277Z,98570.66
2022-11-11T23:28:50.670Z,98570.13
2022-11-11T23:31:18.693Z,98567.59
2022-11-11T23:33:46.612Z,98567.16
2022-11-11T23:36:14.687Z,98564.47
2022-11-11T23:38:47.873Z,98563.44
2022-11-11T23:41:14.264Z,98558.53
2022-11-11T23:43:42.796Z,98566.66
2022-11-11T23:46:09.414Z,98560.19
2022-11-11T23:48:36.048Z,98559.56
2022-11-11T23:51:02.969Z,98564.56
2022-11-11T23:53:29.720Z,98554.84
2022-11-11T23:55:56.894Z,98550.69
2022-11-11T23:58:25.140Z,98550.28
